sensor_id;sensor_type;location;lat;lon;timestamp;P1;durP1;ratioP1;P2;durP2;ratioP2
19364;SDS011;9818;48.382;10.850;2023-12-29T00:00:05;11.23;;;5.40;;
19364;SDS011;9818;48.382;10.850;2023-12-29T00:02:39;14.33;;;5.37;;
19364;SDS011;9818;48.382;10.850;2023-12-29T00:05:07;9.20;;;4.80;;
19364;SDS011;9818;48.382;10.850;2023-12-29T00:07:36;14.77;;;5.47;;
19364;SDS011;9818;48.382;10.850;2023-12-29T00:10:05;9.60;;;4.80;;
19364;SDS011;9818;48.382;10.850;2023-12-29T00:12:35;9.97;;;5.47;;
19364;SDS011;9818;48.382;10.850;2023-12-29T00:15:04;8.87;;;4.77;;
19364;SDS011;9818;48.382;10.850;2023-12-29T00:17:34;9.03;;;4.63;;
19364;SDS011;9818;48.382;10.850;2023-12-29T00:20:08;11.63;;;5.80;;
19364;SDS011;9818;48.382;10.850;2023-12-29T00:22:37;10.17;;;4.63;;
19364;SDS011;9818;48.382;10.850;2023-12-29T00:25:06;9.43;;;4.93;;
19364;SDS011;9818;48.382;10.850;2023-12-29T00:27:36;8.20;;;4.80;;
19364;SDS011;9818;48.382;10.850;2023-12-29T00:30:05;9.10;;;4.67;;
19364;SDS011;9818;48.382;10.850;2023-12-29T00:32:35;8.70;;;4.27;;
19364;SDS011;9818;48.382;10.850;2023-12-29T00:35:04;12.77;;;5.00;;
19364;SDS011;9818;48.382;10.850;2023-12-29T00:37:36;10.40;;;5.10;;
19364;SDS011;9818;48.382;10.850;2023-12-29T00:40:06;9.93;;;4.90;;
19364;SDS011;9818;48.382;10.850;2023-12-29T00:42:35;8.30;;;4.47;;
19364;SDS011;9818;48.382;10.850;2023-12-29T00:45:05;9.63;;;4.63;;
19364;SDS011;9818;48.382;10.850;2023-12-29T00:47:35;10.53;;;4.70;;
19364;SDS011;9818;48.382;10.850;2023-12-29T00:50:04;10.17;;;4.70;;
19364;SDS011;9818;48.382;10.850;2023-12-29T00:52:36;8.00;;;4.30;;
19364;SDS011;9818;48.382;10.850;2023-12-29T00:55:06;8.97;;;4.43;;
19364;SDS011;9818;48.382;10.850;2023-12-29T00:57:35;8.07;;;4.30;;
19364;SDS011;9818;48.382;10.850;2023-12-29T01:00:04;10.03;;;4.40;;
19364;SDS011;9818;48.382;10.850;2023-12-29T01:02:36;7.47;;;4.33;;
19364;SDS011;9818;48.382;10.850;2023-12-29T01:05:05;7.97;;;4.30;;
19364;SDS011;9818;48.382;10.850;2023-12-29T01:07:37;8.50;;;4.30;;
19364;SDS011;9818;48.382;10.850;2023-12-29T01:10:06;9.30;;;4.77;;
19364;SDS011;9818;48.382;10.850;2023-12-29T01:12:36;9.53;;;4.60;;
19364;SDS011;9818;48.382;10.850;2023-12-29T01:15:05;10.03;;;4.60;;
19364;SDS011;9818;48.382;10.850;2023-12-29T01:17:34;9.43;;;4.83;;
19364;SDS011;9818;48.382;10.850;2023-12-29T01:20:03;10.07;;;4.63;;
19364;SDS011;9818;48.382;10.850;2023-12-29T01:22:35;8.50;;;4.43;;
19364;SDS011;9818;48.382;10.850;2023-12-29T01:25:04;12.40;;;4.87;;
19364;SDS011;9818;48.382;10.850;2023-12-29T01:27:33;7.13;;;4.00;;
19364;SDS011;9818;48.382;10.850;2023-12-29T01:30:03;8.50;;;4.43;;
19364;SDS011;9818;48.382;10.850;2023-12-29T01:32:32;7.93;;;4.70;;
19364;SDS011;9818;48.382;10.850;2023-12-29T01:35:01;7.57;;;3.87;;
19364;SDS011;9818;48.382;10.850;2023-12-29T01:37:31;10.57;;;4.27;;
19364;SDS011;9818;48.382;10.850;2023-12-29T01:40:03;7.97;;;4.00;;
19364;SDS011;9818;48.382;10.850;2023-12-29T01:42:32;8.60;;;4.57;;
19364;SDS011;9818;48.382;10.850;2023-12-29T01:45:01;9.63;;;4.00;;
19364;SDS011;9818;48.382;10.850;2023-12-29T01:47:31;8.40;;;4.07;;
19364;SDS011;9818;48.382;10.850;2023-12-29T01:50:00;7.63;;;4.20;;
19364;SDS011;9818;48.382;10.850;2023-12-29T01:52:29;7.40;;;3.90;;
19364;SDS011;9818;48.382;10.850;2023-12-29T01:54:58;5.90;;;3.70;;
19364;SDS011;9818;48.382;10.850;2023-12-29T01:57:29;8.87;;;4.00;;
19364;SDS011;9818;48.382;10.850;2023-12-29T02:00:00;7.70;;;3.93;;
19364;SDS011;9818;48.382;10.850;2023-12-29T02:02:31;7.43;;;4.30;;
19364;SDS011;9818;48.382;10.850;2023-12-29T02:05:00;7.20;;;4.10;;
19364;SDS011;9818;48.382;10.850;2023-12-29T02:07:29;7.83;;;4.20;;
19364;SDS011;9818;48.382;10.850;2023-12-29T02:09:57;7.60;;;4.77;;
19364;SDS011;9818;48.382;10.850;2023-12-29T02:12:30;8.07;;;3.90;;
19364;SDS011;9818;48.382;10.850;2023-12-29T02:14:59;7.17;;;4.20;;
19364;SDS011;9818;48.382;10.850;2023-12-29T02:17:30;6.57;;;3.83;;
19364;SDS011;9818;48.382;10.850;2023-12-29T02:20:04;6.97;;;3.70;;
19364;SDS011;9818;48.382;10.850;2023-12-29T02:22:35;7.67;;;4.23;;
19364;SDS011;9818;48.382;10.850;2023-12-29T02:25:06;7.27;;;4.47;;
19364;SDS011;9818;48.382;10.850;2023-12-29T02:27:39;6.87;;;4.03;;
19364;SDS011;9818;48.382;10.850;2023-12-29T02:30:15;5.73;;;3.30;;
19364;SDS011;9818;48.382;10.850;2023-12-29T02:32:50;9.10;;;4.30;;
19364;SDS011;9818;48.382;10.850;2023-12-29T02:35:23;7.97;;;4.20;;
19364;SDS011;9818;48.382;10.850;2023-12-29T02:37:55;6.77;;;3.80;;
19364;SDS011;9818;48.382;10.850;2023-12-29T02:40:27;7.60;;;4.00;;
19364;SDS011;9818;48.382;10.850;2023-12-29T02:42:56;8.20;;;4.17;;
19364;SDS011;9818;48.382;10.850;2023-12-29T02:45:25;8.63;;;3.90;;
19364;SDS011;9818;48.382;10.850;2023-12-29T02:47:55;7.70;;;3.63;;
19364;SDS011;9818;48.382;10.850;2023-12-29T02:50:23;7.93;;;3.70;;
19364;SDS011;9818;48.382;10.850;2023-12-29T02:52:52;7.23;;;3.93;;
19364;SDS011;9818;48.382;10.850;2023-12-29T02:55:21;7.17;;;3.77;;
19364;SDS011;9818;48.382;10.850;2023-12-29T02:57:52;7.43;;;4.00;;
19364;SDS011;9818;48.382;10.850;2023-12-29T03:00:21;8.53;;;4.00;;
19364;SDS011;9818;48.382;10.850;2023-12-29T03:02:50;8.67;;;3.57;;
19364;SDS011;9818;48.382;10.850;2023-12-29T03:05:19;7.47;;;4.07;;
19364;SDS011;9818;48.382;10.850;2023-12-29T03:07:47;6.10;;;3.50;;
19364;SDS011;9818;48.382;10.850;2023-12-29T03:10:16;6.80;;;3.70;;
19364;SDS011;9818;48.382;10.850;2023-12-29T03:12:45;6.57;;;4.03;;
19364;SDS011;9818;48.382;10.850;2023-12-29T03:15:16;7.60;;;3.87;;
19364;SDS011;9818;48.382;10.850;2023-12-29T03:17:45;6.77;;;3.97;;
19364;SDS011;9818;48.382;10.850;2023-12-29T03:20:14;5.63;;;3.53;;
19364;SDS011;9818;48.382;10.850;2023-12-29T03:22:43;5.70;;;3.40;;
19364;SDS011;9818;48.382;10.850;2023-12-29T03:25:12;6.40;;;3.63;;
19364;SDS011;9818;48.382;10.850;2023-12-29T03:27:41;6.30;;;3.40;;
19364;SDS011;9818;48.382;10.850;2023-12-29T03:30:10;8.57;;;3.57;;
19364;SDS011;9818;48.382;10.850;2023-12-29T03:32:42;7.23;;;3.50;;
19364;SDS011;9818;48.382;10.850;2023-12-29T03:35:11;6.67;;;3.77;;
19364;SDS011;9818;48.382;10.850;2023-12-29T03:37:42;5.87;;;3.53;;
19364;SDS011;9818;48.382;10.850;2023-12-29T03:40:10;5.67;;;3.53;;
19364;SDS011;9818;48.382;10.850;2023-12-29T03:42:41;6.83;;;3.30;;
19364;SDS011;9818;48.382;10.850;2023-12-29T03:45:09;6.03;;;3.60;;
19364;SDS011;9818;48.382;10.850;2023-12-29T03:47:38;5.83;;;3.20;;
19364;SDS011;9818;48.382;10.850;2023-12-29T03:50:10;6.07;;;3.20;;
19364;SDS011;9818;48.382;10.850;2023-12-29T03:52:39;5.53;;;3.20;;
19364;SDS011;9818;48.382;10.850;2023-12-29T03:55:07;5.50;;;3.23;;
19364;SDS011;9818;48.382;10.850;2023-12-29T03:57:36;6.53;;;3.47;;
19364;SDS011;9818;48.382;10.850;2023-12-29T04:00:06;5.53;;;2.97;;
19364;SDS011;9818;48.382;10.850;2023-12-29T04:02:39;5.07;;;3.00;;
19364;SDS011;9818;48.382;10.850;2023-12-29T04:05:10;5.50;;;3.00;;
19364;SDS011;9818;48.382;10.850;2023-12-29T04:07:39;6.93;;;3.70;;
19364;SDS011;9818;48.382;10.850;2023-12-29T04:10:08;5.87;;;3.10;;
19364;SDS011;9818;48.382;10.850;2023-12-29T04:12:37;5.00;;;3.30;;
19364;SDS011;9818;48.382;10.850;2023-12-29T04:15:07;6.83;;;3.20;;
19364;SDS011;9818;48.382;10.850;2023-12-29T04:17:36;6.33;;;3.00;;
19364;SDS011;9818;48.382;10.850;2023-12-29T04:20:08;5.27;;;3.33;;
19364;SDS011;9818;48.382;10.850;2023-12-29T04:22:37;4.97;;;3.30;;
19364;SDS011;9818;48.382;10.850;2023-12-29T04:25:06;5.63;;;3.27;;
19364;SDS011;9818;48.382;10.850;2023-12-29T04:27:36;6.57;;;3.50;;
19364;SDS011;9818;48.382;10.850;2023-12-29T04:30:05;4.93;;;2.87;;
19364;SDS011;9818;48.382;10.850;2023-12-29T04:32:35;4.47;;;3.00;;
19364;SDS011;9818;48.382;10.850;2023-12-29T04:35:04;6.23;;;2.87;;
19364;SDS011;9818;48.382;10.850;2023-12-29T04:37:39;4.97;;;3.07;;
19364;SDS011;9818;48.382;10.850;2023-12-29T04:40:09;5.53;;;3.00;;
19364;SDS011;9818;48.382;10.850;2023-12-29T04:42:38;4.43;;;2.87;;
19364;SDS011;9818;48.382;10.850;2023-12-29T04:45:07;5.60;;;3.17;;
19364;SDS011;9818;48.382;10.850;2023-12-29T04:47:36;5.77;;;3.50;;
19364;SDS011;9818;48.382;10.850;2023-12-29T04:50:08;4.67;;;2.80;;
19364;SDS011;9818;48.382;10.850;2023-12-29T04:52:37;5.07;;;3.03;;
19364;SDS011;9818;48.382;10.850;2023-12-29T04:55:06;5.17;;;3.13;;
19364;SDS011;9818;48.382;10.850;2023-12-29T04:57:36;4.83;;;2.80;;
19364;SDS011;9818;48.382;10.850;2023-12-29T05:00:06;4.57;;;2.77;;
19364;SDS011;9818;48.382;10.850;2023-12-29T05:02:35;3.57;;;2.67;;
19364;SDS011;9818;48.382;10.850;2023-12-29T05:05:04;4.57;;;2.90;;
19364;SDS011;9818;48.382;10.850;2023-12-29T05:07:36;4.70;;;3.00;;
19364;SDS011;9818;48.382;10.850;2023-12-29T05:10:06;4.30;;;2.73;;
19364;SDS011;9818;48.382;10.850;2023-12-29T05:12:35;4.40;;;2.70;;
19364;SDS011;9818;48.382;10.850;2023-12-29T05:15:05;4.03;;;2.60;;
19364;SDS011;9818;48.382;10.850;2023-12-29T05:17:34;5.40;;;2.73;;
19364;SDS011;9818;48.382;10.850;2023-12-29T05:20:05;5.03;;;3.20;;
19364;SDS011;9818;48.382;10.850;2023-12-29T05:22:38;5.50;;;3.20;;
19364;SDS011;9818;48.382;10.850;2023-12-29T05:25:07;3.03;;;2.40;;
19364;SDS011;9818;48.382;10.850;2023-12-29T05:27:36;4.70;;;2.53;;
19364;SDS011;9818;48.382;10.850;2023-12-29T05:30:06;3.63;;;2.53;;
19364;SDS011;9818;48.382;10.850;2023-12-29T05:32:35;5.13;;;3.13;;
19364;SDS011;9818;48.382;10.850;2023-12-29T05:35:04;3.40;;;2.43;;
19364;SDS011;9818;48.382;10.850;2023-12-29T05:37:36;4.07;;;2.80;;
19364;SDS011;9818;48.382;10.850;2023-12-29T05:40:05;3.93;;;2.90;;
19364;SDS011;9818;48.382;10.850;2023-12-29T05:42:35;4.27;;;3.07;;
19364;SDS011;9818;48.382;10.850;2023-12-29T05:45:04;3.60;;;2.50;;
19364;SDS011;9818;48.382;10.850;2023-12-29T05:47:34;3.13;;;2.30;;
19364;SDS011;9818;48.382;10.850;2023-12-29T05:50:03;4.17;;;2.43;;
19364;SDS011;9818;48.382;10.850;2023-12-29T05:52:32;5.13;;;3.00;;
19364;SDS011;9818;48.382;10.850;2023-12-29T05:55:04;4.70;;;2.80;;
19364;SDS011;9818;48.382;10.850;2023-12-29T05:57:33;3.63;;;2.37;;
19364;SDS011;9818;48.382;10.850;2023-12-29T06:00:02;5.27;;;2.90;;
19364;SDS011;9818;48.382;10.850;2023-12-29T06:02:31;3.80;;;2.50;;
19364;SDS011;9818;48.382;10.850;2023-12-29T06:05:00;4.57;;;2.30;;
19364;SDS011;9818;48.382;10.850;2023-12-29T06:07:29;3.60;;;2.60;;
19364;SDS011;9818;48.382;10.850;2023-12-29T06:10:00;3.07;;;2.20;;
19364;SDS011;9818;48.382;10.850;2023-12-29T06:12:29;3.53;;;2.50;;
19364;SDS011;9818;48.382;10.850;2023-12-29T06:14:58;4.20;;;2.57;;
19364;SDS011;9818;48.382;10.850;2023-12-29T06:17:27;3.93;;;2.63;;
19364;SDS011;9818;48.382;10.850;2023-12-29T06:19:56;2.87;;;2.13;;
19364;SDS011;9818;48.382;10.850;2023-12-29T06:22:26;4.33;;;2.77;;
19364;SDS011;9818;48.382;10.850;2023-12-29T06:24:55;3.63;;;2.47;;
19364;SDS011;9818;48.382;10.850;2023-12-29T06:27:27;3.80;;;2.27;;
19364;SDS011;9818;48.382;10.850;2023-12-29T06:29:57;3.47;;;2.53;;
19364;SDS011;9818;48.382;10.850;2023-12-29T06:32:26;4.87;;;2.53;;
19364;SDS011;9818;48.382;10.850;2023-12-29T06:34:55;4.40;;;2.57;;
19364;SDS011;9818;48.382;10.850;2023-12-29T06:37:24;4.00;;;2.40;;
19364;SDS011;9818;48.382;10.850;2023-12-29T06:39:52;3.93;;;2.60;;
19364;SDS011;9818;48.382;10.850;2023-12-29T06:42:21;3.27;;;2.33;;
19364;SDS011;9818;48.382;10.850;2023-12-29T06:44:53;3.23;;;2.37;;
19364;SDS011;9818;48.382;10.850;2023-12-29T06:47:22;4.37;;;2.40;;
19364;SDS011;9818;48.382;10.850;2023-12-29T06:49:51;3.93;;;2.33;;
19364;SDS011;9818;48.382;10.850;2023-12-29T06:52:20;4.50;;;2.30;;
19364;SDS011;9818;48.382;10.850;2023-12-29T06:54:48;2.80;;;2.13;;
19364;SDS011;9818;48.382;10.850;2023-12-29T06:57:17;2.93;;;2.20;;
19364;SDS011;9818;48.382;10.850;2023-12-29T06:59:46;2.90;;;2.03;;
19364;SDS011;9818;48.382;10.850;2023-12-29T07:02:18;3.50;;;2.57;;
19364;SDS011;9818;48.382;10.850;2023-12-29T07:04:47;3.80;;;2.20;;
19364;SDS011;9818;48.382;10.850;2023-12-29T07:07:16;3.67;;;2.23;;
19364;SDS011;9818;48.382;10.850;2023-12-29T07:09:44;3.13;;;2.40;;
19364;SDS011;9818;48.382;10.850;2023-12-29T07:12:13;3.27;;;2.37;;
19364;SDS011;9818;48.382;10.850;2023-12-29T07:14:43;3.30;;;2.10;;
19364;SDS011;9818;48.382;10.850;2023-12-29T07:17:12;3.23;;;2.07;;
19364;SDS011;9818;48.382;10.850;2023-12-29T07:19:43;4.60;;;2.43;;
19364;SDS011;9818;48.382;10.850;2023-12-29T07:22:12;2.73;;;2.10;;
19364;SDS011;9818;48.382;10.850;2023-12-29T07:24:41;3.30;;;2.30;;
19364;SDS011;9818;48.382;10.850;2023-12-29T07:27:10;2.37;;;1.83;;
19364;SDS011;9818;48.382;10.850;2023-12-29T07:29:39;2.63;;;2.13;;
19364;SDS011;9818;48.382;10.850;2023-12-29T07:32:08;3.03;;;2.30;;
19364;SDS011;9818;48.382;10.850;2023-12-29T07:34:36;2.40;;;1.97;;
19364;SDS011;9818;48.382;10.850;2023-12-29T07:37:08;2.63;;;1.83;;
19364;SDS011;9818;48.382;10.850;2023-12-29T07:39:37;3.63;;;2.20;;
19364;SDS011;9818;48.382;10.850;2023-12-29T07:42:06;3.63;;;2.23;;
19364;SDS011;9818;48.382;10.850;2023-12-29T07:44:39;2.30;;;2.03;;
19364;SDS011;9818;48.382;10.850;2023-12-29T07:47:08;3.17;;;2.20;;
19364;SDS011;9818;48.382;10.850;2023-12-29T07:49:37;2.47;;;2.10;;
19364;SDS011;9818;48.382;10.850;2023-12-29T07:52:08;2.97;;;2.13;;
19364;SDS011;9818;48.382;10.850;2023-12-29T07:54:37;2.40;;;2.00;;
19364;SDS011;9818;48.382;10.850;2023-12-29T07:57:06;3.17;;;2.43;;
19364;SDS011;9818;48.382;10.850;2023-12-29T07:59:35;2.63;;;2.23;;
19364;SDS011;9818;48.382;10.850;2023-12-29T08:02:04;3.77;;;2.33;;
19364;SDS011;9818;48.382;10.850;2023-12-29T08:04:33;2.43;;;1.87;;
19364;SDS011;9818;48.382;10.850;2023-12-29T08:07:02;3.37;;;2.00;;
19364;SDS011;9818;48.382;10.850;2023-12-29T08:09:34;2.27;;;1.90;;
19364;SDS011;9818;48.382;10.850;2023-12-29T08:12:03;3.60;;;2.30;;
19364;SDS011;9818;48.382;10.850;2023-12-29T08:14:32;2.70;;;1.90;;
19364;SDS011;9818;48.382;10.850;2023-12-29T08:17:01;3.43;;;2.13;;
19364;SDS011;9818;48.382;10.850;2023-12-29T08:19:30;3.50;;;2.17;;
19364;SDS011;9818;48.382;10.850;2023-12-29T08:21:58;2.30;;;1.83;;
19364;SDS011;9818;48.382;10.850;2023-12-29T08:24:27;2.60;;;2.00;;
19364;SDS011;9818;48.382;10.850;2023-12-29T08:26:58;1.93;;;1.73;;
19364;SDS011;9818;48.382;10.850;2023-12-29T08:29:27;3.47;;;2.30;;
19364;SDS011;9818;48.382;10.850;2023-12-29T08:31:56;3.03;;;2.10;;
19364;SDS011;9818;48.382;10.850;2023-12-29T08:34:27;3.10;;;2.20;;
19364;SDS011;9818;48.382;10.850;2023-12-29T08:36:55;2.57;;;1.90;;
19364;SDS011;9818;48.382;10.850;2023-12-29T08:39:24;2.33;;;1.90;;
19364;SDS011;9818;48.382;10.850;2023-12-29T08:41:53;2.70;;;2.13;;
19364;SDS011;9818;48.382;10.850;2023-12-29T08:44:25;3.37;;;2.10;;
19364;SDS011;9818;48.382;10.850;2023-12-29T08:46:53;2.80;;;2.23;;
19364;SDS011;9818;48.382;10.850;2023-12-29T08:49:22;3.63;;;2.00;;
19364;SDS011;9818;48.382;10.850;2023-12-29T08:51:51;2.60;;;1.80;;
19364;SDS011;9818;48.382;10.850;2023-12-29T08:54:20;2.53;;;1.70;;
19364;SDS011;9818;48.382;10.850;2023-12-29T08:56:48;2.33;;;1.90;;
19364;SDS011;9818;48.382;10.850;2023-12-29T08:59:17;2.73;;;1.90;;
19364;SDS011;9818;48.382;10.850;2023-12-29T09:01:49;2.83;;;2.20;;
19364;SDS011;9818;48.382;10.850;2023-12-29T09:04:18;2.10;;;1.90;;
19364;SDS011;9818;48.382;10.850;2023-12-29T09:06:46;2.90;;;2.00;;
19364;SDS011;9818;48.382;10.850;2023-12-29T09:09:15;2.47;;;1.90;;
19364;SDS011;9818;48.382;10.850;2023-12-29T09:11:44;1.83;;;1.67;;
19364;SDS011;9818;48.382;10.850;2023-12-29T09:14:13;2.30;;;2.00;;
19364;SDS011;9818;48.382;10.850;2023-12-29T09:16:42;1.80;;;1.70;;
19364;SDS011;9818;48.382;10.850;2023-12-29T09:19:14;2.63;;;1.90;;
19364;SDS011;9818;48.382;10.850;2023-12-29T09:21:43;2.70;;;2.10;;
19364;SDS011;9818;48.382;10.850;2023-12-29T09:24:11;3.40;;;2.10;;
19364;SDS011;9818;48.382;10.850;2023-12-29T09:26:40;3.60;;;2.23;;
19364;SDS011;9818;48.382;10.850;2023-12-29T09:29:09;3.70;;;2.50;;
19364;SDS011;9818;48.382;10.850;2023-12-29T09:31:38;3.30;;;2.20;;
19364;SDS011;9818;48.382;10.850;2023-12-29T09:34:07;4.47;;;2.50;;
19364;SDS011;9818;48.382;10.850;2023-12-29T09:36:38;3.50;;;2.40;;
19364;SDS011;9818;48.382;10.850;2023-12-29T09:39:07;4.10;;;2.40;;
19364;SDS011;9818;48.382;10.850;2023-12-29T09:41:36;4.10;;;2.27;;
19364;SDS011;9818;48.382;10.850;2023-12-29T09:44:12;4.40;;;2.20;;
19364;SDS011;9818;48.382;10.850;2023-12-29T09:46:42;2.80;;;2.10;;
19364;SDS011;9818;48.382;10.850;2023-12-29T09:49:11;3.50;;;2.50;;
19364;SDS011;9818;48.382;10.850;2023-12-29T09:51:44;4.50;;;2.40;;
19364;SDS011;9818;48.382;10.850;2023-12-29T09:54:13;4.23;;;2.47;;
19364;SDS011;9818;48.382;10.850;2023-12-29T09:56:42;3.07;;;2.30;;
19364;SDS011;9818;48.382;10.850;2023-12-29T09:59:11;2.10;;;1.90;;
19364;SDS011;9818;48.382;10.850;2023-12-29T10:01:42;2.80;;;2.23;;
19364;SDS011;9818;48.382;10.850;2023-12-29T10:04:13;3.23;;;2.27;;
19364;SDS011;9818;48.382;10.850;2023-12-29T10:06:44;2.63;;;1.97;;
19364;SDS011;9818;48.382;10.850;2023-12-29T10:09:16;3.77;;;2.13;;
19364;SDS011;9818;48.382;10.850;2023-12-29T10:11:48;2.60;;;2.00;;
19364;SDS011;9818;48.382;10.850;2023-12-29T10:14:20;4.57;;;2.20;;
19364;SDS011;9818;48.382;10.850;2023-12-29T10:16:52;2.97;;;2.03;;
19364;SDS011;9818;48.382;10.850;2023-12-29T10:19:27;4.97;;;2.23;;
19364;SDS011;9818;48.382;10.850;2023-12-29T10:22:10;3.13;;;2.30;;
19364;SDS011;9818;48.382;10.850;2023-12-29T10:24:43;3.07;;;2.17;;
19364;SDS011;9818;48.382;10.850;2023-12-29T10:27:13;3.00;;;2.57;;
19364;SDS011;9818;48.382;10.850;2023-12-29T10:29:41;2.80;;;1.90;;
19364;SDS011;9818;48.382;10.850;2023-12-29T10:32:10;3.47;;;2.00;;
19364;SDS011;9818;48.382;10.850;2023-12-29T10:34:39;2.40;;;2.20;;
19364;SDS011;9818;48.382;10.850;2023-12-29T10:37:10;2.80;;;1.80;;
19364;SDS011;9818;48.382;10.850;2023-12-29T10:39:54;2.30;;;2.00;;
19364;SDS011;9818;48.382;10.850;2023-12-29T10:42:23;2.63;;;2.20;;
19364;SDS011;9818;48.382;10.850;2023-12-29T10:45:04;1.90;;;1.60;;
19364;SDS011;9818;48.382;10.850;2023-12-29T10:47:33;2.73;;;2.17;;
19364;SDS011;9818;48.382;10.850;2023-12-29T10:50:03;3.47;;;2.30;;
19364;SDS011;9818;48.382;10.850;2023-12-29T10:52:35;3.03;;;2.23;;
19364;SDS011;9818;48.382;10.850;2023-12-29T10:55:07;4.00;;;2.23;;
19364;SDS011;9818;48.382;10.850;2023-12-29T10:57:38;3.33;;;1.90;;
19364;SDS011;9818;48.382;10.850;2023-12-29T11:00:08;3.10;;;1.97;;
19364;SDS011;9818;48.382;10.850;2023-12-29T11:02:39;2.67;;;2.10;;
19364;SDS011;9818;48.382;10.850;2023-12-29T11:05:09;3.90;;;2.43;;
19364;SDS011;9818;48.382;10.850;2023-12-29T11:07:41;4.67;;;2.20;;
19364;SDS011;9818;48.382;10.850;2023-12-29T11:10:10;5.10;;;2.53;;
19364;SDS011;9818;48.382;10.850;2023-12-29T11:12:38;5.40;;;2.10;;
19364;SDS011;9818;48.382;10.850;2023-12-29T11:15:07;4.63;;;1.97;;
19364;SDS011;9818;48.382;10.850;2023-12-29T11:17:37;3.50;;;2.40;;
19364;SDS011;9818;48.382;10.850;2023-12-29T11:20:06;3.57;;;2.10;;
19364;SDS011;9818;48.382;10.850;2023-12-29T11:22:35;4.03;;;2.03;;
19364;SDS011;9818;48.382;10.850;2023-12-29T11:25:06;4.23;;;2.10;;
19364;SDS011;9818;48.382;10.850;2023-12-29T11:27:37;4.20;;;2.27;;
19364;SDS011;9818;48.382;10.850;2023-12-29T11:30:07;3.53;;;1.80;;
19364;SDS011;9818;48.382;10.850;2023-12-29T11:32:38;4.03;;;2.10;;
19364;SDS011;9818;48.382;10.850;2023-12-29T11:35:13;4.20;;;2.40;;
19364;SDS011;9818;48.382;10.850;2023-12-29T11:37:49;3.63;;;2.17;;
19364;SDS011;9818;48.382;10.850;2023-12-29T11:40:30;4.27;;;2.47;;
19364;SDS011;9818;48.382;10.850;2023-12-29T11:43:05;3.47;;;2.30;;
19364;SDS011;9818;48.382;10.850;2023-12-29T11:45:37;2.20;;;1.90;;
19364;SDS011;9818;48.382;10.850;2023-12-29T11:48:06;3.43;;;2.20;;
19364;SDS011;9818;48.382;10.850;2023-12-29T11:50:37;4.57;;;2.40;;
19364;SDS011;9818;48.382;10.850;2023-12-29T11:53:06;4.37;;;2.00;;
19364;SDS011;9818;48.382;10.850;2023-12-29T11:55:39;3.67;;;2.40;;
19364;SDS011;9818;48.382;10.850;2023-12-29T11:58:23;3.50;;;2.00;;
19364;SDS011;9818;48.382;10.850;2023-12-29T12:00:53;3.57;;;2.27;;
19364;SDS011;9818;48.382;10.850;2023-12-29T12:03:24;2.97;;;2.03;;
19364;SDS011;9818;48.382;10.850;2023-12-29T12:05:54;4.73;;;2.53;;
19364;SDS011;9818;48.382;10.850;2023-12-29T12:08:28;3.53;;;1.97;;
19364;SDS011;9818;48.382;10.850;2023-12-29T12:14:01;4.33;;;1.90;;
19364;SDS011;9818;48.382;10.850;2023-12-29T12:19:18;5.20;;;1.90;;
19364;SDS011;9818;48.382;10.850;2023-12-29T12:21:49;2.63;;;1.97;;
19364;SDS011;9818;48.382;10.850;2023-12-29T12:24:21;4.23;;;1.90;;
19364;SDS011;9818;48.382;10.850;2023-12-29T12:26:51;2.30;;;1.83;;
19364;SDS011;9818;48.382;10.850;2023-12-29T12:29:22;2.87;;;1.90;;
19364;SDS011;9818;48.382;10.850;2023-12-29T12:31:52;3.27;;;1.80;;
19364;SDS011;9818;48.382;10.850;2023-12-29T12:34:22;3.40;;;1.70;;
19364;SDS011;9818;48.382;10.850;2023-12-29T12:36:51;3.47;;;1.70;;
19364;SDS011;9818;48.382;10.850;2023-12-29T12:39:24;3.33;;;1.90;;
19364;SDS011;9818;48.382;10.850;2023-12-29T12:42:05;3.33;;;2.17;;
19364;SDS011;9818;48.382;10.850;2023-12-29T12:44:37;3.00;;;1.93;;
19364;SDS011;9818;48.382;10.850;2023-12-29T12:47:08;2.67;;;1.67;;
19364;SDS011;9818;48.382;10.850;2023-12-29T12:49:45;2.57;;;1.60;;
19364;SDS011;9818;48.382;10.850;2023-12-29T12:52:14;2.90;;;1.53;;
19364;SDS011;9818;48.382;10.850;2023-12-29T12:54:43;3.00;;;1.70;;
19364;SDS011;9818;48.382;10.850;2023-12-29T12:57:12;2.27;;;1.70;;
19364;SDS011;9818;48.382;10.850;2023-12-29T12:59:48;3.63;;;1.63;;
19364;SDS011;9818;48.382;10.850;2023-12-29T13:02:18;1.93;;;1.67;;
19364;SDS011;9818;48.382;10.850;2023-12-29T13:04:47;1.87;;;1.40;;
19364;SDS011;9818;48.382;10.850;2023-12-29T13:07:16;2.87;;;1.47;;
19364;SDS011;9818;48.382;10.850;2023-12-29T13:09:45;2.53;;;1.70;;
19364;SDS011;9818;48.382;10.850;2023-12-29T13:12:17;2.73;;;1.60;;
19364;SDS011;9818;48.382;10.850;2023-12-29T13:14:48;3.40;;;1.60;;
19364;SDS011;9818;48.382;10.850;2023-12-29T13:17:18;3.50;;;1.83;;
19364;SDS011;9818;48.382;10.850;2023-12-29T13:19:54;2.43;;;1.57;;
19364;SDS011;9818;48.382;10.850;2023-12-29T13:22:24;4.00;;;1.60;;
19364;SDS011;9818;48.382;10.850;2023-12-29T13:24:54;2.33;;;1.47;;
19364;SDS011;9818;48.382;10.850;2023-12-29T13:27:23;5.63;;;1.73;;
19364;SDS011;9818;48.382;10.850;2023-12-29T13:29:54;2.67;;;1.20;;
19364;SDS011;9818;48.382;10.850;2023-12-29T13:32:24;1.63;;;1.23;;
19364;SDS011;9818;48.382;10.850;2023-12-29T13:34:58;2.67;;;1.60;;
19364;SDS011;9818;48.382;10.850;2023-12-29T13:37:35;2.60;;;1.53;;
19364;SDS011;9818;48.382;10.850;2023-12-29T13:40:09;2.13;;;1.40;;
19364;SDS011;9818;48.382;10.850;2023-12-29T13:42:43;3.60;;;1.40;;
19364;SDS011;9818;48.382;10.850;2023-12-29T13:45:17;2.63;;;1.57;;
19364;SDS011;9818;48.382;10.850;2023-12-29T13:47:47;3.50;;;1.40;;
19364;SDS011;9818;48.382;10.850;2023-12-29T13:50:15;2.53;;;1.30;;
19364;SDS011;9818;48.382;10.850;2023-12-29T13:52:45;1.23;;;1.07;;
19364;SDS011;9818;48.382;10.850;2023-12-29T13:55:20;2.20;;;1.43;;
19364;SDS011;9818;48.382;10.850;2023-12-29T13:57:49;2.77;;;1.30;;
19364;SDS011;9818;48.382;10.850;2023-12-29T14:00:22;1.70;;;1.23;;
19364;SDS011;9818;48.382;10.850;2023-12-29T14:02:57;2.53;;;1.40;;
19364;SDS011;9818;48.382;10.850;2023-12-29T14:05:31;2.70;;;1.33;;
19364;SDS011;9818;48.382;10.850;2023-12-29T14:08:05;4.17;;;1.43;;
19364;SDS011;9818;48.382;10.850;2023-12-29T14:10:37;7.03;;;1.77;;
19364;SDS011;9818;48.382;10.850;2023-12-29T14:13:06;5.40;;;1.70;;
19364;SDS011;9818;48.382;10.850;2023-12-29T14:15:39;2.50;;;1.30;;
19364;SDS011;9818;48.382;10.850;2023-12-29T14:18:09;5.37;;;1.40;;
19364;SDS011;9818;48.382;10.850;2023-12-29T14:20:51;6.37;;;1.50;;
19364;SDS011;9818;48.382;10.850;2023-12-29T14:23:20;2.47;;;1.47;;
19364;SDS011;9818;48.382;10.850;2023-12-29T14:25:49;4.77;;;1.73;;
19364;SDS011;9818;48.382;10.850;2023-12-29T14:28:18;4.13;;;1.30;;
19364;SDS011;9818;48.382;10.850;2023-12-29T14:30:50;2.30;;;1.53;;
19364;SDS011;9818;48.382;10.850;2023-12-29T14:33:30;4.60;;;1.50;;
19364;SDS011;9818;48.382;10.850;2023-12-29T14:35:59;2.57;;;1.80;;
19364;SDS011;9818;48.382;10.850;2023-12-29T14:38:27;3.83;;;1.60;;
19364;SDS011;9818;48.382;10.850;2023-12-29T14:40:56;2.17;;;1.30;;
19364;SDS011;9818;48.382;10.850;2023-12-29T14:43:25;4.50;;;1.43;;
19364;SDS011;9818;48.382;10.850;2023-12-29T14:45:57;1.63;;;1.23;;
19364;SDS011;9818;48.382;10.850;2023-12-29T14:48:26;4.40;;;1.73;;
19364;SDS011;9818;48.382;10.850;2023-12-29T14:50:55;4.63;;;1.17;;
19364;SDS011;9818;48.382;10.850;2023-12-29T14:53:24;3.10;;;1.20;;
19364;SDS011;9818;48.382;10.850;2023-12-29T14:55:53;3.30;;;1.20;;
19364;SDS011;9818;48.382;10.850;2023-12-29T14:58:22;2.07;;;1.27;;
19364;SDS011;9818;48.382;10.850;2023-12-29T15:00:51;1.70;;;1.10;;
19364;SDS011;9818;48.382;10.850;2023-12-29T15:03:22;4.80;;;1.83;;
19364;SDS011;9818;48.382;10.850;2023-12-29T15:05:51;2.20;;;1.30;;
19364;SDS011;9818;48.382;10.850;2023-12-29T15:08:20;2.10;;;1.20;;
19364;SDS011;9818;48.382;10.850;2023-12-29T15:10:49;5.83;;;1.20;;